Rechercher aéroport 
image banner adimage banner adimage banner ad
image banner ad

O27 - Oakdale

Situé à Oakdale, United States

ICAO - O27, IATA -

Données fournies par Airmate  

Information générale

Coordonnées: N37°45'23" W120°48'1"
Élévation : 237 feet MSL.
Variation magnétique : 15° East
Voir autres Aéroports à California

Données opérationnelles

Special qualification required
Heure actuelle UTC:
Heure actuelle locale:
METAR: KMOD 020553Z AUTO 34011KT 10SM CLR 21/10 A2999 RMK AO2 SLP155 T02110100 10339 20211 51019
TAF: KMOD 020538Z 0206/0306 35008KT P6SM SKC FM022000 32007KT P6SM BKN250
Voir NOTAMs / SUP AIP / TFR affectant cet aéroport [VIEW]
Fréquences de communication: [VIEW]

Pistes:

Identifiant RWYQFULongueur (ft)Largeur (ft)SurfaceLDA (ft)
10111°301375ASPH
28291°301375ASPH

Coordonnées de l'aéroport

Adresse: Oakdale United States

Vue satellite de O27